Hlavní strana
METAR-TAF:

METAR-TAF

Letiště :

Taylorville Municipal Airport

Taylorville, Illinois, Spojené státy americké

zeměpisná šířka: 39-32-03N, zeměpisná délka: 089-19-40W, výška: 190 m

Aktuální stav počasí

Zpráva byla vytvořena před 23 minutami, v 04:35 UTC
Jihovýchodní vítr 15 kt
Teplota 1°C
Vlhkost vzduchu 47%
Tlak 1020 hPa
Viditelnost: 16.1 km
Zataženo ve výšce 8000 ft

METAR: KTAZ 240435Z AUTO 13015KT 10SM OVC080 01/M09 A3013 RMK AO2 T00061090

Čas: 22:58 (04:58 UTC)


TAF: chybějící

Stav a předpovědi počasí z více než 4 000 letišť (zprávy METAR a TAF).

Červené a žluté tečky na mapě představují dostupné meteorologické stanice.

Když kurzor umístíte na tečku, zobrazí se název stanice.

Pak kliknutím zobrazíte stav a předpověď počasí.

Chcete-li změnit mapu, kliknutím na zelené tlačítko se znaménkem +mapu přiblížíte, kliknutím na zelené tlačítko se znaménkem – mapu oddálíte a kliknutím na zelené šipky přejdete na sousední mapy.


METAR-TAF: